createdAt,value
2023-02-08T00:00:54.422Z,17.02
2023-02-08T00:03:21.493Z,18.17
2023-02-08T00:05:48.662Z,18.15
2023-02-08T00:08:15.361Z,17.20
2023-02-08T00:10:42.561Z,17.83
2023-02-08T00:13:09.388Z,17.85
2023-02-08T00:15:36.127Z,18.92
2023-02-08T00:18:02.782Z,18.05
2023-02-08T00:20:29.472Z,19.35
2023-02-08T00:22:56.487Z,19.77
2023-02-08T00:25:23.232Z,20.42
2023-02-08T00:27:49.910Z,20.00
2023-02-08T00:30:16.651Z,20.70
2023-02-08T00:32:43.313Z,20.35
2023-02-08T00:35:11.662Z,20.60
2023-02-08T00:37:38.314Z,20.95
2023-02-08T00:40:06.038Z,20.17
2023-02-08T00:42:33.348Z,20.30
2023-02-08T00:45:00.018Z,19.85
2023-02-08T00:47:26.657Z,19.95
2023-02-08T00:49:53.692Z,20.00
2023-02-08T00:52:20.729Z,19.70
2023-02-08T00:54:47.420Z,20.45
2023-02-08T00:57:14.724Z,20.25
2023-02-08T00:59:41.635Z,20.02
2023-02-08T01:02:09.091Z,20.75
2023-02-08T01:04:35.900Z,20.00
2023-02-08T01:07:02.576Z,20.10
2023-02-08T01:09:29.212Z,21.30
2023-02-08T01:11:55.853Z,21.60
2023-02-08T01:14:22.499Z,21.42
2023-02-08T01:16:49.140Z,21.67
2023-02-08T01:19:16.381Z,20.83
2023-02-08T01:21:44.606Z,21.48
2023-02-08T01:24:12.003Z,21.08
2023-02-08T01:26:38.997Z,19.98
2023-02-08T01:29:06.042Z,20.30
2023-02-08T01:31:38.200Z,20.92
2023-02-08T01:34:05.589Z,19.88
2023-02-08T01:36:33.022Z,21.20
2023-02-08T01:39:01.636Z,20.08
2023-02-08T01:41:31.521Z,20.55
2023-02-08T01:44:03.058Z,20.90
2023-02-08T01:46:40.377Z,20.55
2023-02-08T01:49:15.366Z,21.42
2023-02-08T01:51:48.605Z,20.48
2023-02-08T01:54:18.456Z,21.17
2023-02-08T01:56:48.582Z,19.80
2023-02-08T01:59:22.782Z,20.55
2023-02-08T02:01:54.729Z,21.00
2023-02-08T02:04:21.665Z,20.98
2023-02-08T02:06:51.898Z,20.50
2023-02-08T02:09:41.772Z,23.13
2023-02-08T02:12:09.471Z,21.95
2023-02-08T02:14:37.548Z,22.33
2023-02-08T02:17:04.810Z,22.00
2023-02-08T02:19:31.348Z,22.48
2023-02-08T02:22:41.802Z,22.95
2023-02-08T02:25:49.035Z,23.48
2023-02-08T02:28:47.971Z,25.10
2023-02-08T02:31:26.834Z,25.85
2023-02-08T02:33:56.536Z,27.17
2023-02-08T02:36:42.103Z,27.65
2023-02-08T02:39:29.840Z,28.42
2023-02-08T02:42:41.808Z,26.83
2023-02-08T02:45:20.489Z,29.67
2023-02-08T02:47:56.218Z,28.20
2023-02-08T02:50:31.915Z,31.02
2023-02-08T02:53:22.956Z,28.85
2023-02-08T02:55:56.585Z,29.48
2023-02-08T02:58:24.091Z,29.23
2023-02-08T03:01:00.689Z,29.10
2023-02-08T03:03:29.198Z,29.55
2023-02-08T03:06:01.554Z,29.70
2023-02-08T03:08:51.980Z,32.42
2023-02-08T03:11:26.135Z,32.95
2023-02-08T03:14:05.007Z,29.58
2023-02-08T03:16:34.534Z,30.40
2023-02-08T03:19:04.032Z,30.98
2023-02-08T03:22:03.210Z,29.60
2023-02-08T03:24:36.622Z,30.77
2023-02-08T03:27:24.946Z,29.48
2023-02-08T03:30:02.160Z,28.92
2023-02-08T03:32:38.394Z,29.25
2023-02-08T03:35:10.506Z,29.38
2023-02-08T03:37:41.602Z,27.85
2023-02-08T03:40:22.878Z,30.25
2023-02-08T03:42:51.123Z,27.83
2023-02-08T03:45:24.145Z,27.95
2023-02-08T03:47:52.236Z,28.77
2023-02-08T03:50:19.870Z,27.17
2023-02-08T03:52:48.070Z,27.23
2023-02-08T03:55:19.061Z,26.63
2023-02-08T03:58:08.801Z,27.77
2023-02-08T04:00:39.919Z,27.45
2023-02-08T04:03:11.542Z,26.90
2023-02-08T04:05:38.204Z,27.80
2023-02-08T04:08:05.135Z,27.38
2023-02-08T04:10:31.823Z,27.08
2023-02-08T04:13:01.472Z,27.25
2023-02-08T04:15:28.290Z,27.42
2023-02-08T04:17:55.248Z,25.83
2023-02-08T04:20:21.922Z,25.92
2023-02-08T04:22:48.668Z,25.65
2023-02-08T04:25:15.357Z,25.15
2023-02-08T04:27:42.038Z,26.50
2023-02-08T04:30:09.141Z,25.02
2023-02-08T04:32:35.797Z,25.58
2023-02-08T04:35:02.409Z,26.20
2023-02-08T04:37:29.038Z,24.88
2023-02-08T04:39:55.695Z,26.33
2023-02-08T04:42:22.438Z,26.95
2023-02-08T04:44:55.275Z,26.60
2023-02-08T04:47:22.169Z,26.83
2023-02-08T04:49:48.825Z,26.88
2023-02-08T04:52:15.509Z,26.88
2023-02-08T04:54:42.119Z,26.40
2023-02-08T04:57:12.649Z,25.58
2023-02-08T04:59:39.302Z,26.20
2023-02-08T05:02:06.013Z,26.38
2023-02-08T05:04:35.877Z,25.55
2023-02-08T05:07:02.741Z,25.70
2023-02-08T05:09:29.479Z,26.40
2023-02-08T05:11:56.197Z,26.27
2023-02-08T05:14:23.212Z,25.75
2023-02-08T05:16:49.889Z,25.50
2023-02-08T05:19:16.571Z,26.25
2023-02-08T05:21:43.217Z,26.08
2023-02-08T05:24:12.859Z,25.80
2023-02-08T05:26:40.855Z,25.23
2023-02-08T05:29:07.439Z,26.48
2023-02-08T05:31:34.236Z,26.13
2023-02-08T05:34:01.017Z,26.30
2023-02-08T05:36:27.712Z,26.13
2023-02-08T05:38:54.444Z,24.23
2023-02-08T05:41:21.192Z,26.70
2023-02-08T05:43:47.940Z,24.20
2023-02-08T05:46:14.937Z,24.40
2023-02-08T05:48:41.764Z,25.65
2023-02-08T05:51:11.744Z,22.17
2023-02-08T05:53:38.561Z,23.27
2023-02-08T05:56:05.322Z,23.02
2023-02-08T05:58:32.001Z,23.40
2023-02-08T06:00:58.792Z,22.90
2023-02-08T06:03:25.620Z,23.17
2023-02-08T06:05:52.289Z,22.02
2023-02-08T06:08:18.962Z,22.77
2023-02-08T06:10:48.634Z,21.38
2023-02-08T06:13:16.015Z,22.73
2023-02-08T06:15:42.614Z,22.55
2023-02-08T06:18:09.393Z,22.15
2023-02-08T06:20:36.089Z,21.67
2023-02-08T06:23:05.754Z,22.27
2023-02-08T06:25:32.431Z,21.77
2023-02-08T06:27:59.145Z,21.27
2023-02-08T06:30:25.813Z,21.15
2023-02-08T06:32:52.561Z,22.02
2023-02-08T06:35:19.261Z,22.17
2023-02-08T06:37:45.878Z,21.42
2023-02-08T06:40:12.550Z,21.40
2023-02-08T06:42:39.192Z,20.88
2023-02-08T06:45:08.443Z,20.67
2023-02-08T06:47:35.289Z,22.00
2023-02-08T06:50:01.937Z,22.40
2023-02-08T06:52:28.755Z,20.95
2023-02-08T06:54:55.703Z,22.52
2023-02-08T06:57:22.310Z,23.27
2023-02-08T06:59:48.965Z,21.38
2023-02-08T07:02:17.854Z,23.20
2023-02-08T07:04:45.584Z,22.58
2023-02-08T07:07:13.135Z,21.75
2023-02-08T07:09:40.179Z,22.52
2023-02-08T07:12:07.037Z,22.33
2023-02-08T07:14:35.883Z,22.17
2023-02-08T07:17:03.447Z,21.95
2023-02-08T07:19:30.425Z,21.50
2023-02-08T07:22:08.462Z,22.10
2023-02-08T07:24:39.860Z,22.88
2023-02-08T07:27:11.814Z,22.58
2023-02-08T07:29:38.862Z,22.83
2023-02-08T07:32:06.580Z,22.63
2023-02-08T07:34:36.178Z,23.05
2023-02-08T07:37:03.100Z,22.20
2023-02-08T07:39:31.491Z,24.50
2023-02-08T07:41:58.821Z,23.02
2023-02-08T07:44:28.728Z,24.10
2023-02-08T07:46:55.376Z,22.52
2023-02-08T07:49:22.096Z,22.45
2023-02-08T07:51:48.716Z,22.73
2023-02-08T07:54:15.369Z,24.00
2023-02-08T07:56:42.105Z,22.85
2023-02-08T07:59:09.022Z,23.48
2023-02-08T08:01:35.790Z,24.45
2023-02-08T08:04:02.542Z,23.58
2023-02-08T08:06:29.239Z,23.38
2023-02-08T08:08:55.879Z,23.85
2023-02-08T08:11:23.109Z,22.30
2023-02-08T08:13:50.253Z,23.38
2023-02-08T08:16:17.397Z,23.13
2023-02-08T08:18:44.288Z,21.33
2023-02-08T08:21:11.102Z,23.60
2023-02-08T08:23:37.820Z,22.45
2023-02-08T08:26:14.035Z,23.27
2023-02-08T08:28:41.402Z,22.70
2023-02-08T08:31:13.194Z,22.08
2023-02-08T08:33:40.119Z,22.90
2023-02-08T08:36:07.714Z,22.83
2023-02-08T08:38:34.348Z,23.42
2023-02-08T08:41:00.978Z,22.10
2023-02-08T08:43:27.610Z,22.98
2023-02-08T08:45:54.249Z,22.33
2023-02-08T08:48:21.076Z,23.10
2023-02-08T08:50:49.617Z,23.40
2023-02-08T08:53:16.426Z,23.58
2023-02-08T08:55:46.215Z,21.83
2023-02-08T08:58:12.859Z,24.73
2023-02-08T09:00:39.728Z,22.48
2023-02-08T09:03:09.646Z,23.42
2023-02-08T09:05:36.533Z,22.45
2023-02-08T09:08:03.715Z,22.10
2023-02-08T09:10:31.066Z,22.40
2023-02-08T09:12:58.709Z,22.92
2023-02-08T09:15:25.391Z,22.27
2023-02-08T09:17:52.032Z,22.20
2023-02-08T09:20:18.764Z,21.80
2023-02-08T09:22:48.572Z,22.60
2023-02-08T09:25:15.314Z,22.30
2023-02-08T09:27:42.064Z,22.48
2023-02-08T09:30:09.327Z,21.70
2023-02-08T09:32:36.860Z,21.33
2023-02-08T09:35:03.865Z,21.65
2023-02-08T09:37:30.536Z,22.15
2023-02-08T09:40:00.179Z,21.17
2023-02-08T09:42:37.342Z,21.77
2023-02-08T09:45:29.552Z,22.73
2023-02-08T09:48:14.510Z,21.13
2023-02-08T09:50:52.516Z,21.17
2023-02-08T09:53:34.433Z,20.73
2023-02-08T09:56:05.496Z,21.92
2023-02-08T09:58:42.033Z,22.63
2023-02-08T10:01:35.192Z,21.38
2023-02-08T10:04:06.607Z,21.98
2023-02-08T10:06:33.472Z,21.88
2023-02-08T10:09:06.274Z,22.85
2023-02-08T10:11:45.240Z,23.30
2023-02-08T10:14:34.576Z,21.55
2023-02-08T10:17:04.390Z,22.70
2023-02-08T10:19:38.230Z,21.17
2023-02-08T10:22:16.217Z,20.52
2023-02-08T10:25:01.650Z,22.30
2023-02-08T10:27:38.949Z,22.30
2023-02-08T10:30:17.495Z,22.55
2023-02-08T10:33:06.619Z,23.30
2023-02-08T10:35:37.548Z,22.17
2023-02-08T10:38:19.277Z,22.70
2023-02-08T10:40:55.988Z,21.30
2023-02-08T10:43:35.482Z,21.13
2023-02-08T10:46:07.070Z,23.05
2023-02-08T10:49:11.717Z,22.20
2023-02-08T10:51:41.071Z,22.00
2023-02-08T10:54:12.418Z,22.85
2023-02-08T10:56:57.627Z,24.67
2023-02-08T10:59:29.250Z,24.60
2023-02-08T11:01:56.712Z,22.67
2023-02-08T11:04:23.390Z,23.20
2023-02-08T11:06:51.547Z,22.75
2023-02-08T11:09:23.917Z,22.23
2023-02-08T11:11:54.203Z,23.17
2023-02-08T11:14:45.962Z,22.42
2023-02-08T11:17:28.648Z,21.48
2023-02-08T11:19:55.616Z,23.05
2023-02-08T11:22:25.231Z,22.90
2023-02-08T11:24:58.551Z,21.33
2023-02-08T11:27:28.468Z,23.10
2023-02-08T11:30:15.815Z,22.42
2023-02-08T11:32:44.886Z,22.23
2023-02-08T11:35:26.095Z,21.88
2023-02-08T11:37:55.001Z,22.83
2023-02-08T11:40:25.831Z,22.88
2023-02-08T11:42:53.646Z,22.83
2023-02-08T11:45:26.100Z,22.25
2023-02-08T11:47:52.893Z,22.42
2023-02-08T11:50:37.088Z,22.75
2023-02-08T11:53:06.976Z,22.92
2023-02-08T11:55:34.549Z,22.38
2023-02-08T11:58:13.437Z,23.10
2023-02-08T12:00:40.991Z,22.60
2023-02-08T12:03:23.859Z,23.63
2023-02-08T12:06:08.400Z,22.88
2023-02-08T12:08:51.235Z,22.75
2023-02-08T12:11:41.782Z,22.95
2023-02-08T12:14:26.683Z,24.27
2023-02-08T12:16:53.204Z,21.33
2023-02-08T12:19:30.347Z,22.25
2023-02-08T12:22:04.090Z,23.00
2023-02-08T12:25:05.973Z,22.00
2023-02-08T12:27:42.937Z,21.83
2023-02-08T12:30:26.515Z,23.10
2023-02-08T12:33:11.494Z,22.85
2023-02-08T12:36:05.882Z,22.15
2023-02-08T12:39:10.410Z,23.30
2023-02-08T12:42:38.068Z,23.60
2023-02-08T12:45:31.727Z,23.73
2023-02-08T12:48:11.737Z,22.85
2023-02-08T12:50:46.234Z,23.55
2023-02-08T12:53:22.055Z,22.90
2023-02-08T12:55:50.577Z,22.52
2023-02-08T12:58:46.269Z,22.42
2023-02-08T13:01:19.720Z,23.27
2023-02-08T13:04:21.854Z,23.50
2023-02-08T13:06:51.183Z,21.83
2023-02-08T13:09:35.251Z,22.92
2023-02-08T13:12:44.557Z,24.10
2023-02-08T13:15:30.800Z,22.77
2023-02-08T13:18:04.570Z,21.90
2023-02-08T13:20:49.549Z,23.90
2023-02-08T13:23:50.530Z,23.30
2023-02-08T13:26:26.726Z,23.33
2023-02-08T13:29:02.021Z,22.55
2023-02-08T13:31:36.210Z,21.92
2023-02-08T13:34:13.081Z,20.73
2023-02-08T13:36:41.800Z,21.88
2023-02-08T13:39:39.709Z,22.63
2023-02-08T13:42:08.742Z,22.77
2023-02-08T13:44:37.872Z,23.00
2023-02-08T13:47:05.855Z,22.77
2023-02-08T13:49:50.621Z,21.85
2023-02-08T13:52:47.965Z,22.60
2023-02-08T13:55:30.761Z,21.70
2023-02-08T13:58:01.313Z,21.73
2023-02-08T14:00:35.459Z,22.08
2023-02-08T14:03:08.252Z,21.10
2023-02-08T14:05:50.944Z,23.08
2023-02-08T14:08:29.666Z,21.80
2023-02-08T14:11:30.831Z,22.02
2023-02-08T14:14:16.830Z,21.83
2023-02-08T14:16:44.895Z,21.27
2023-02-08T14:19:20.398Z,20.73
2023-02-08T14:21:49.536Z,21.05
2023-02-08T14:24:37.980Z,20.45
2023-02-08T14:27:11.357Z,21.05
2023-02-08T14:29:38.307Z,20.05
2023-02-08T14:32:05.240Z,18.23
2023-02-08T14:34:35.635Z,20.30
2023-02-08T14:37:26.711Z,19.02
2023-02-08T14:40:31.208Z,20.75
2023-02-08T14:43:03.524Z,19.08
2023-02-08T14:45:34.590Z,17.88
2023-02-08T14:48:01.109Z,17.70
2023-02-08T14:50:37.592Z,18.27
2023-02-08T14:53:13.961Z,17.60
2023-02-08T14:55:46.306Z,17.88
2023-02-08T14:58:20.685Z,17.42
2023-02-08T15:00:51.461Z,19.73
2023-02-08T15:03:18.691Z,18.48
2023-02-08T15:06:07.180Z,18.83
2023-02-08T15:08:34.015Z,19.15
2023-02-08T15:11:00.655Z,21.08
2023-02-08T15:13:27.747Z,19.30
2023-02-08T15:15:56.357Z,20.27
2023-02-08T15:18:25.807Z,19.50
2023-02-08T15:21:04.935Z,19.63
2023-02-08T15:23:31.789Z,19.17
2023-02-08T15:26:00.353Z,18.63
2023-02-08T15:28:30.020Z,20.20
2023-02-08T15:31:06.141Z,19.55
2023-02-08T15:33:33.160Z,19.45
2023-02-08T15:36:06.925Z,19.98
2023-02-08T15:38:35.529Z,19.27
2023-02-08T15:41:04.621Z,18.85
2023-02-08T15:43:31.934Z,18.50
2023-02-08T15:46:01.615Z,20.20
2023-02-08T15:48:29.204Z,20.33
2023-02-08T15:50:56.891Z,20.42
2023-02-08T15:53:24.001Z,20.23
2023-02-08T15:55:54.337Z,19.50
2023-02-08T15:58:36.254Z,19.05
2023-02-08T16:01:04.252Z,20.13
2023-02-08T16:03:31.461Z,20.60
2023-02-08T16:06:04.148Z,20.20
2023-02-08T16:08:33.112Z,19.27
2023-02-08T16:11:01.652Z,18.67
2023-02-08T16:13:34.287Z,19.48
2023-02-08T16:16:16.493Z,19.75
2023-02-08T16:18:46.362Z,18.90
2023-02-08T16:21:34.569Z,19.45
2023-02-08T16:24:07.116Z,19.67
2023-02-08T16:26:36.153Z,19.88
2023-02-08T16:29:05.522Z,20.00
2023-02-08T16:31:33.596Z,20.83
2023-02-08T16:34:08.078Z,20.30
2023-02-08T16:36:37.958Z,19.83
2023-02-08T16:39:22.077Z,19.95
2023-02-08T16:42:06.484Z,20.25
2023-02-08T16:45:09.375Z,19.27
2023-02-08T16:47:43.009Z,20.40
2023-02-08T16:50:13.251Z,20.75
2023-02-08T16:52:40.298Z,19.63
2023-02-08T16:55:08.385Z,20.50
2023-02-08T16:57:48.332Z,19.02
2023-02-08T17:00:24.301Z,19.83
2023-02-08T17:02:51.222Z,20.25
2023-02-08T17:05:19.287Z,20.40
2023-02-08T17:07:52.240Z,19.58
2023-02-08T17:10:28.529Z,21.17
2023-02-08T17:13:09.842Z,21.10
2023-02-08T17:15:43.803Z,19.67
2023-02-08T17:18:11.050Z,20.83
2023-02-08T17:20:37.847Z,20.73
2023-02-08T17:23:05.711Z,19.55
2023-02-08T17:25:33.730Z,20.48
2023-02-08T17:28:06.502Z,20.63
2023-02-08T17:30:36.279Z,20.05
2023-02-08T17:33:17.993Z,20.58
2023-02-08T17:35:46.783Z,20.45
2023-02-08T17:38:14.026Z,21.08
2023-02-08T17:40:40.688Z,20.63
2023-02-08T17:43:07.730Z,19.98
2023-02-08T17:45:40.817Z,21.52
2023-02-08T17:48:08.032Z,22.45
2023-02-08T17:50:35.239Z,22.02
2023-02-08T17:53:06.819Z,21.90
2023-02-08T17:55:33.657Z,28.33
2023-02-08T17:58:00.549Z,27.10
2023-02-08T18:00:27.460Z,25.42
2023-02-08T18:02:55.869Z,23.60
2023-02-08T18:05:25.161Z,23.30
2023-02-08T18:07:53.100Z,23.42
2023-02-08T18:10:20.643Z,24.60
2023-02-08T18:12:47.475Z,22.88
2023-02-08T18:15:17.282Z,22.85
2023-02-08T18:17:44.681Z,21.95
2023-02-08T18:20:14.371Z,23.75
2023-02-08T18:22:42.333Z,22.13
2023-02-08T18:25:10.134Z,22.52
2023-02-08T18:27:36.956Z,24.67
2023-02-08T18:30:04.229Z,23.40
2023-02-08T18:32:34.293Z,21.80
2023-02-08T18:35:04.755Z,21.35
2023-02-08T18:37:32.310Z,22.23
2023-02-08T18:40:02.224Z,21.50
2023-02-08T18:42:29.054Z,23.08
2023-02-08T18:44:58.754Z,22.25
2023-02-08T18:47:25.555Z,22.98
2023-02-08T18:49:55.842Z,21.73
2023-02-08T18:52:23.945Z,21.23
2023-02-08T18:54:53.734Z,20.77
2023-02-08T18:57:20.660Z,22.42
2023-02-08T18:59:47.572Z,21.38
2023-02-08T19:02:21.228Z,32.10
2023-02-08T19:04:48.462Z,36.33
2023-02-08T19:07:15.262Z,28.60
2023-02-08T19:09:43.837Z,27.48
2023-02-08T19:12:10.628Z,25.98
2023-02-08T19:14:37.569Z,23.27
2023-02-08T19:17:04.587Z,24.67
2023-02-08T19:19:31.275Z,23.98
2023-02-08T19:21:58.014Z,21.85
2023-02-08T19:24:27.730Z,22.33
2023-02-08T19:26:54.369Z,22.92
2023-02-08T19:29:22.585Z,23.10
2023-02-08T19:31:50.513Z,23.55
2023-02-08T19:34:17.997Z,22.83
2023-02-08T19:36:49.292Z,23.20
2023-02-08T19:39:25.009Z,21.75
2023-02-08T19:41:53.044Z,32.85
2023-02-08T19:44:20.544Z,45.03
2023-02-08T19:46:52.633Z,24.80
2023-02-08T19:49:21.234Z,24.20
2023-02-08T19:51:48.155Z,24.63
2023-02-08T19:54:17.139Z,22.17
2023-02-08T19:56:43.882Z,23.00
2023-02-08T19:59:19.131Z,21.45
2023-02-08T20:01:46.481Z,18.95
2023-02-08T20:04:13.892Z,19.95
2023-02-08T20:06:40.776Z,22.42
2023-02-08T20:09:08.094Z,25.23
2023-02-08T20:11:38.732Z,19.02
2023-02-08T20:14:11.952Z,19.25
2023-02-08T20:16:38.673Z,18.80
2023-02-08T20:19:05.367Z,19.08
2023-02-08T20:21:32.578Z,18.15
2023-02-08T20:24:01.906Z,19.17
2023-02-08T20:26:32.004Z,18.08
2023-02-08T20:28:59.249Z,17.27
2023-02-08T20:31:31.211Z,17.20
2023-02-08T20:33:59.972Z,16.65
2023-02-08T20:36:28.845Z,17.58
2023-02-08T20:38:57.468Z,15.98
2023-02-08T20:41:25.520Z,17.55
2023-02-08T20:43:52.572Z,17.85
2023-02-08T20:46:24.853Z,16.48
2023-02-08T20:48:52.687Z,16.40
2023-02-08T20:51:21.575Z,17.70
2023-02-08T20:53:49.357Z,16.27
2023-02-08T20:56:21.780Z,16.85
2023-02-08T20:58:49.116Z,16.73
2023-02-08T21:01:21.192Z,15.90
2023-02-08T21:03:48.082Z,16.48
2023-02-08T21:06:20.245Z,15.25
2023-02-08T21:08:51.810Z,16.58
2023-02-08T21:11:20.094Z,14.85
2023-02-08T21:13:46.981Z,16.00
2023-02-08T21:16:14.605Z,15.93
2023-02-08T21:18:41.276Z,16.08
2023-02-08T21:21:09.350Z,15.45
2023-02-08T21:23:36.450Z,15.60
2023-02-08T21:26:05.029Z,15.40
2023-02-08T21:28:32.289Z,16.27
2023-02-08T21:31:07.915Z,17.08
2023-02-08T21:33:34.764Z,16.75
2023-02-08T21:36:03.277Z,16.73
2023-02-08T21:38:30.130Z,18.58
2023-02-08T21:40:56.947Z,16.83
2023-02-08T21:43:23.628Z,17.85
2023-02-08T21:45:50.491Z,18.50
2023-02-08T21:48:17.301Z,18.25
2023-02-08T21:51:02.669Z,19.65
2023-02-08T21:53:48.105Z,17.90
2023-02-08T21:56:14.853Z,17.85
2023-02-08T21:58:41.547Z,18.27
2023-02-08T22:01:08.880Z,19.23
2023-02-08T22:03:35.575Z,18.83
2023-02-08T22:06:05.114Z,18.38
2023-02-08T22:08:31.757Z,18.65
2023-02-08T22:11:04.661Z,18.65
2023-02-08T22:13:33.069Z,18.60
2023-02-08T22:16:07.669Z,18.45
2023-02-08T22:18:34.400Z,18.35
2023-02-08T22:21:03.933Z,18.23
2023-02-08T22:23:30.898Z,18.73
2023-02-08T22:25:57.537Z,18.92
2023-02-08T22:28:24.343Z,19.15
2023-02-08T22:30:51.277Z,18.52
2023-02-08T22:33:18.154Z,18.85
2023-02-08T22:35:44.888Z,17.90
2023-02-08T22:38:11.629Z,17.67
2023-02-08T22:40:41.029Z,17.70
2023-02-08T22:43:07.707Z,17.38
2023-02-08T22:45:34.478Z,18.10
2023-02-08T22:48:01.320Z,17.13
2023-02-08T22:50:28.059Z,16.52
2023-02-08T22:52:54.746Z,17.15
2023-02-08T22:55:21.342Z,17.27
2023-02-08T22:57:51.288Z,17.23
2023-02-08T23:00:18.066Z,18.05
2023-02-08T23:02:44.774Z,17.52
2023-02-08T23:05:12.210Z,17.88
2023-02-08T23:07:38.845Z,17.90
2023-02-08T23:10:05.656Z,17.75
2023-02-08T23:12:32.471Z,17.17
2023-02-08T23:14:59.129Z,17.50
2023-02-08T23:17:25.918Z,17.30
2023-02-08T23:19:53.259Z,16.98
2023-02-08T23:22:19.914Z,16.75
2023-02-08T23:24:46.627Z,16.98
2023-02-08T23:27:13.348Z,16.27
2023-02-08T23:29:40.032Z,16.45
2023-02-08T23:32:06.832Z,16.40
2023-02-08T23:34:34.716Z,16.83
2023-02-08T23:37:01.912Z,16.10
2023-02-08T23:39:28.619Z,15.88
2023-02-08T23:41:56.193Z,16.83
2023-02-08T23:44:23.653Z,16.23
2023-02-08T23:46:50.455Z,15.95
2023-02-08T23:49:17.186Z,15.60
2023-02-08T23:51:43.866Z,15.07
2023-02-08T23:54:10.606Z,14.85
2023-02-08T23:56:37.318Z,14.77
2023-02-08T23:59:08.277Z,16.13
